Time;durP1;ratioP1;P1;durP2;ratioP2;P2;SDS_P1;SDS_P2;PMS_P1;PMS_P2;Temp;Humidity;BMP_temperature;BMP_pressure;BME280_temperature;BME280_humidity;BME280_pressure;Samples;Min_cycle;Max_cycle;Signal;HPM_P1;HPM_P2
2021/05/31 00:01:36;;;;;;;9.82;5.50;;;7.30;99.90;;;;;;5011787;28;20029;-72
2021/05/31 00:04:01;;;;;;;6.85;5.07;;;7.30;99.90;;;;;;5011544;28;20411;-72
2021/05/31 00:06:27;;;;;;;7.53;4.85;;;7.30;99.90;;;;;;5012187;28;20014;-73
2021/05/31 00:08:52;;;;;;;7.97;4.75;;;7.30;99.90;;;;;;5010655;28;20131;-73
2021/05/31 00:11:20;;;;;;;5.90;4.32;;;7.30;99.90;;;;;;5011888;28;20503;-72
2021/05/31 00:13:46;;;;;;;6.90;4.70;;;7.20;99.90;;;;;;5011965;28;20026;-72
2021/05/31 00:16:13;;;;;;;5.53;4.22;;;7.20;99.90;;;;;;5010588;28;20092;-73
2021/05/31 00:18:38;;;;;;;8.57;4.53;;;7.10;99.90;;;;;;5010465;28;20109;-73
2021/05/31 00:21:04;;;;;;;6.88;4.72;;;7.10;99.90;;;;;;5011620;28;20445;-72
2021/05/31 00:23:30;;;;;;;6.95;4.95;;;7.00;99.90;;;;;;5011647;28;20026;-74
2021/05/31 00:25:55;;;;;;;6.95;5.00;;;7.00;99.90;;;;;;5010377;28;20018;-72
2021/05/31 00:28:21;;;;;;;6.75;4.90;;;7.00;99.90;;;;;;5011677;28;20030;-72
2021/05/31 00:30:46;;;;;;;7.32;4.88;;;6.90;99.90;;;;;;5010176;28;20026;-73
2021/05/31 00:33:12;;;;;;;7.78;4.25;;;6.90;99.90;;;;;;5011535;28;20048;-74
2021/05/31 00:35:38;;;;;;;5.38;4.38;;;6.80;99.90;;;;;;5011795;28;20030;-72
2021/05/31 00:38:03;;;;;;;6.63;4.57;;;6.80;99.90;;;;;;5011365;28;20028;-73
2021/05/31 00:40:29;;;;;;;6.90;5.25;;;6.70;99.90;;;;;;5011269;28;20046;-73
2021/05/31 00:42:55;;;;;;;7.47;5.35;;;6.70;99.90;;;;;;5011281;28;20022;-73
2021/05/31 00:45:21;;;;;;;7.53;5.13;;;6.70;99.90;;;;;;5010047;28;20018;-73
2021/05/31 00:47:47;;;;;;;6.45;4.80;;;6.70;99.90;;;;;;5011251;28;20029;-73
2021/05/31 00:50:13;;;;;;;6.88;4.85;;;6.60;99.90;;;;;;5009832;28;20064;-73
2021/05/31 00:52:40;;;;;;;7.50;5.45;;;6.60;99.90;;;;;;5010873;28;20038;-72
2021/05/31 00:55:06;;;;;;;8.60;5.43;;;6.50;99.90;;;;;;5009554;28;20481;-72
2021/05/31 00:57:32;;;;;;;7.90;5.63;;;6.50;99.90;;;;;;5011005;28;20026;-72
2021/05/31 00:59:58;;;;;;;7.43;5.10;;;6.50;99.90;;;;;;5009585;28;20022;-72
2021/05/31 01:02:23;;;;;;;9.15;5.18;;;6.40;99.90;;;;;;5009337;28;20498;-72
2021/05/31 01:04:49;;;;;;;7.57;5.45;;;6.40;99.90;;;;;;5010538;28;20046;-72
2021/05/31 01:07:40;;;;;;;7.38;5.53;;;6.40;99.90;;;;;;5010525;28;20022;-72
2021/05/31 01:10:16;;;;;;;7.15;5.72;;;6.40;99.90;;;;;;5009216;28;20183;-73
2021/05/31 01:13:08;;;;;;;8.02;5.35;;;6.30;99.90;;;;;;5010745;28;20057;-73
2021/05/31 01:15:38;;;;;;;10.05;5.85;;;6.30;99.90;;;;;;5010309;28;20056;-72
2021/05/31 01:18:18;;;;;;;8.63;5.57;;;6.20;99.90;;;;;;5009387;28;20057;-72
2021/05/31 01:21:10;;;;;;;10.75;6.00;;;6.20;99.90;;;;;;5010142;28;20022;-72
2021/05/31 01:23:40;;;;;;;10.18;6.60;;;6.10;99.90;;;;;;5005734;28;20121;-72
2021/05/31 01:26:11;;;;;;;12.20;6.75;;;6.10;99.90;;;;;;5008882;28;20026;-72
2021/05/31 01:28:53;;;;;;;7.25;4.60;;;6.00;99.90;;;;;;5010243;28;20036;-72
2021/05/31 01:31:48;;;;;;;10.18;5.93;;;6.00;99.90;;;;;;5010126;28;20022;-72
2021/05/31 01:34:26;;;;;;;11.38;6.60;;;5.90;99.90;;;;;;5010426;28;20476;-72
2021/05/31 01:36:58;;;;;;;12.88;6.78;;;5.90;99.90;;;;;;5010311;28;20021;-72
2021/05/31 01:39:28;;;;;;;13.20;7.22;;;5.90;99.90;;;;;;5008642;28;20506;-73
2021/05/31 01:41:55;;;;;;;11.77;7.20;;;6.00;99.90;;;;;;5010388;28;20030;-72
2021/05/31 01:44:21;;;;;;;14.05;7.10;;;5.90;99.90;;;;;;5010033;28;20025;-73
2021/05/31 01:46:47;;;;;;;10.15;6.57;;;5.90;99.90;;;;;;5010061;28;20101;-73
2021/05/31 01:49:13;;;;;;;11.68;6.60;;;5.80;99.90;;;;;;5009873;28;20026;-72
2021/05/31 01:51:40;;;;;;;11.50;7.60;;;5.80;99.90;;;;;;5008744;28;20586;-72
2021/05/31 01:54:07;;;;;;;11.82;7.07;;;5.70;99.90;;;;;;5008640;28;20514;-72
2021/05/31 01:56:36;;;;;;;13.10;7.20;;;5.70;99.90;;;;;;5010033;28;20098;-72
2021/05/31 01:59:02;;;;;;;11.52;7.53;;;5.70;99.90;;;;;;5009652;28;20501;-72
2021/05/31 02:01:29;;;;;;;10.88;6.78;;;5.60;99.90;;;;;;5009819;28;20101;-72
2021/05/31 02:03:54;;;;;;;10.02;6.53;;;5.60;99.90;;;;;;5008548;28;20018;-72
2021/05/31 02:06:20;;;;;;;10.77;7.28;;;5.50;99.90;;;;;;5010320;28;20029;-73
2021/05/31 02:08:45;;;;;;;9.35;7.05;;;5.40;99.90;;;;;;5009962;28;20560;-72
2021/05/31 02:11:18;;;;;;;9.98;6.28;;;5.40;99.90;;;;;;5009658;28;20037;-72
2021/05/31 02:13:46;;;;;;;;;;;5.40;99.90;;;;;;5008910;28;20109;-72
2021/05/31 02:16:29;;;;;;;10.82;6.80;;;5.30;99.90;;;;;;5009667;28;19913;-73
2021/05/31 02:18:57;;;;;;;11.07;6.95;;;5.30;99.90;;;;;;5009530;28;20030;-72
2021/05/31 02:21:24;;;;;;;11.20;7.38;;;5.20;99.90;;;;;;5008380;28;20061;-72
2021/05/31 02:23:52;;;;;;;10.75;7.47;;;5.20;99.90;;;;;;5008410;28;20030;-72
2021/05/31 02:26:19;;;;;;;10.73;7.22;;;5.20;99.90;;;;;;5008282;28;20026;-72
2021/05/31 02:28:47;;;;;;;10.02;7.38;;;5.20;99.90;;;;;;5012162;28;20391;-72
2021/05/31 02:31:15;;;;;;;10.68;7.40;;;5.10;99.90;;;;;;5012242;28;20026;-73
2021/05/31 02:33:40;;;;;;;12.35;7.78;;;5.10;99.90;;;;;;5013587;28;20479;-72
2021/05/31 02:36:06;;;;;;;12.63;7.68;;;5.10;99.90;;;;;;5012587;28;20032;-72
2021/05/31 02:38:32;;;;;;;11.27;7.07;;;5.00;99.90;;;;;;5012196;28;20064;-73
2021/05/31 02:40:58;;;;;;;11.85;7.13;;;5.00;99.90;;;;;;5013316;28;20029;-72
2021/05/31 02:43:24;;;;;;;9.50;6.60;;;4.90;99.90;;;;;;5012154;28;20030;-72
2021/05/31 02:45:50;;;;;;;10.85;7.32;;;4.90;99.90;;;;;;5012110;28;20029;-73
2021/05/31 02:48:16;;;;;;;9.85;6.90;;;4.90;99.90;;;;;;5013251;28;20024;-73
2021/05/31 02:50:41;;;;;;;10.90;7.63;;;4.80;99.90;;;;;;5012143;28;20030;-72
2021/05/31 02:53:07;;;;;;;11.57;7.72;;;4.80;99.90;;;;;;5013270;28;20084;-72
2021/05/31 02:55:36;;;;;;;14.30;8.77;;;4.80;99.90;;;;;;5013101;28;20022;-72
2021/05/31 02:58:02;;;;;;;11.20;7.75;;;4.80;99.90;;;;;;5013428;28;20384;-72
2021/05/31 03:00:28;;;;;;;11.23;7.72;;;4.80;99.90;;;;;;5012906;28;20041;-73
2021/05/31 03:02:55;;;;;;;12.18;8.27;;;4.80;99.90;;;;;;5013085;28;20045;-73
2021/05/31 03:05:26;;;;;;;10.57;7.43;;;4.80;99.90;;;;;;5012950;28;20030;-72
2021/05/31 03:07:52;;;;;;;9.32;6.93;;;4.80;99.90;;;;;;5011639;28;20116;-72
2021/05/31 03:10:17;;;;;;;12.40;7.78;;;4.80;99.90;;;;;;5012808;28;20215;-73
2021/05/31 03:12:44;;;;;;;11.63;7.55;;;4.80;99.90;;;;;;5012854;28;20143;-72
2021/05/31 03:15:12;;;;;;;9.18;6.43;;;4.70;99.90;;;;;;5012780;28;20033;-73
2021/05/31 03:17:38;;;;;;;10.25;7.15;;;4.70;99.90;;;;;;5012720;28;20033;-72
2021/05/31 03:20:05;;;;;;;11.05;7.57;;;4.70;99.90;;;;;;5012539;28;20030;-72
2021/05/31 03:22:31;;;;;;;12.07;7.38;;;4.70;99.90;;;;;;5012594;28;20442;-72
2021/05/31 03:24:57;;;;;;;10.35;6.85;;;4.60;99.90;;;;;;5011278;28;20026;-72
2021/05/31 03:27:22;;;;;;;10.10;6.80;;;4.60;99.90;;;;;;5011314;28;20116;-73
2021/05/31 03:29:48;;;;;;;9.32;6.68;;;4.50;99.90;;;;;;5011355;28;20029;-73
2021/05/31 03:32:13;;;;;;;10.73;7.15;;;4.50;99.90;;;;;;5012771;28;20372;-73
2021/05/31 03:34:39;;;;;;;11.82;7.53;;;4.50;99.90;;;;;;5011549;28;20072;-72
2021/05/31 03:37:04;;;;;;;9.85;6.50;;;4.60;99.90;;;;;;5012920;28;20053;-72
2021/05/31 03:39:30;;;;;;;10.55;6.72;;;4.50;99.90;;;;;;5011910;28;20100;-72
2021/05/31 03:41:56;;;;;;;10.63;7.53;;;4.50;99.90;;;;;;5012646;28;20032;-72
2021/05/31 03:44:21;;;;;;;10.25;6.60;;;4.50;99.90;;;;;;5011402;28;20065;-73
2021/05/31 03:46:47;;;;;;;12.98;7.75;;;4.60;99.90;;;;;;5012395;28;20102;-73
2021/05/31 03:49:13;;;;;;;12.32;8.00;;;4.60;99.90;;;;;;5012391;28;20479;-73
2021/05/31 03:51:38;;;;;;;9.98;7.45;;;4.70;99.90;;;;;;5012298;28;20097;-73
2021/05/31 03:54:04;;;;;;;10.05;7.20;;;4.70;99.90;;;;;;5011335;28;20070;-72
2021/05/31 03:56:30;;;;;;;11.43;8.18;;;4.80;99.90;;;;;;5012096;28;20033;-72
2021/05/31 03:58:56;;;;;;;11.60;8.45;;;4.90;99.90;;;;;;5012234;28;20022;-72
2021/05/31 04:01:22;;;;;;;13.35;8.25;;;5.00;99.90;;;;;;5012005;28;20022;-72
2021/05/31 04:03:47;;;;;;;11.43;7.80;;;5.00;99.90;;;;;;5010758;28;20025;-73
2021/05/31 04:11:42;;;;;;;10.18;7.20;;;5.30;99.90;;;;;;5012191;28;20083;-73
2021/05/31 04:14:13;;;;;;;11.52;7.70;;;5.40;99.90;;;;;;5012212;28;20026;-72
2021/05/31 04:16:41;;;;;;;10.98;7.30;;;5.50;99.90;;;;;;5010570;28;20576;-73
2021/05/31 04:19:09;;;;;;;11.90;7.25;;;5.60;99.90;;;;;;5012237;28;20026;-74
2021/05/31 04:21:35;;;;;;;10.93;7.38;;;5.70;99.90;;;;;;5010655;28;20396;-73
2021/05/31 04:24:01;;;;;;;9.25;6.55;;;5.80;99.90;;;;;;5010590;28;20387;-73
2021/05/31 04:26:28;;;;;;;13.20;8.27;;;5.90;99.90;;;;;;5011780;28;20033;-73
2021/05/31 04:28:54;;;;;;;17.13;9.82;;;6.00;99.90;;;;;;5011780;28;20390;-72
2021/05/31 04:31:20;;;;;;;11.40;8.18;;;6.20;99.90;;;;;;5010554;28;20120;-73
2021/05/31 04:33:46;;;;;;;14.20;8.57;;;6.30;99.90;;;;;;5011682;28;20450;-73
2021/05/31 04:36:11;;;;;;;12.48;8.45;;;6.50;99.90;;;;;;5011890;28;20018;-73
2021/05/31 04:38:38;;;;;;;16.02;8.18;;;6.60;99.90;;;;;;5011480;28;20028;-72
2021/05/31 04:41:03;;;;;;;12.82;8.40;;;6.70;99.90;;;;;;5012559;28;20399;-73
2021/05/31 04:43:30;;;;;;;12.63;8.50;;;6.90;99.90;;;;;;5011500;28;20018;-73
2021/05/31 04:45:55;;;;;;;15.57;8.68;;;7.00;99.90;;;;;;5011452;28;20029;-72
2021/05/31 04:48:21;;;;;;;14.30;8.90;;;7.10;99.90;;;;;;5010186;28;20026;-73
2021/05/31 04:50:46;;;;;;;16.13;10.02;;;7.20;99.90;;;;;;5010297;28;20022;-73
2021/05/31 04:53:12;;;;;;;14.98;9.98;;;7.30;99.90;;;;;;5011329;28;20026;-73
2021/05/31 04:55:39;;;;;;;17.35;10.57;;;7.40;99.90;;;;;;5011125;28;20026;-73
2021/05/31 04:58:05;;;;;;;16.10;10.57;;;7.50;99.90;;;;;;5010028;28;20094;-73
2021/05/31 05:00:31;;;;;;;14.15;8.65;;;7.60;99.90;;;;;;5010955;28;20028;-72
2021/05/31 05:02:57;;;;;;;16.15;9.32;;;7.70;99.90;;;;;;5011285;28;20093;-72
2021/05/31 05:05:23;;;;;;;16.08;10.23;;;7.80;99.90;;;;;;5009796;28;20024;-72
2021/05/31 05:07:48;;;;;;;20.45;10.45;;;7.90;99.90;;;;;;5011030;28;20022;-73
2021/05/31 05:10:21;;;;;;;13.63;9.30;;;8.00;99.90;;;;;;5009740;28;20037;-72
2021/05/31 05:12:50;;;;;;;17.13;9.40;;;8.10;99.90;;;;;;5011014;28;20487;-73
2021/05/31 05:15:19;;;;;;;15.25;9.65;;;8.20;99.90;;;;;;5011376;28;20025;-73
2021/05/31 05:17:48;;;;;;;14.13;9.82;;;8.30;99.90;;;;;;5009796;28;20040;-73
2021/05/31 05:20:16;;;;;;;12.75;8.68;;;8.40;99.90;;;;;;5009540;28;20395;-74
2021/05/31 05:22:43;;;;;;;12.90;8.45;;;8.50;99.90;;;;;;5010951;28;20075;-71
2021/05/31 05:25:10;;;;;;;16.48;10.55;;;8.60;99.90;;;;;;5009647;28;20035;-73
2021/05/31 05:27:36;;;;;;;14.57;8.13;;;8.70;99.90;;;;;;5010351;28;20026;-73
2021/05/31 05:30:04;;;;;;;14.25;8.32;;;8.90;99.90;;;;;;5010802;28;20021;-73
2021/05/31 05:32:30;;;;;;;19.05;9.93;;;9.00;99.90;;;;;;5010354;28;20105;-73
2021/05/31 05:35:05;;;;;;;14.52;8.90;;;9.10;99.90;;;;;;5010428;28;20100;-73
2021/05/31 05:37:32;;;;;;;17.65;8.77;;;9.30;99.90;;;;;;5009114;28;20080;-74
2021/05/31 05:42:52;;;;;;;19.67;10.13;;;9.50;99.90;;;;;;5010491;28;20498;-73
2021/05/31 05:48:01;;;;;;;11.70;7.97;;;9.60;99.90;;;;;;5010507;28;20107;-73
2021/05/31 05:50:27;;;;;;;13.88;8.95;;;9.80;99.90;;;;;;5008783;28;20026;-72
2021/05/31 05:52:53;;;;;;;10.50;7.55;;;9.90;99.90;;;;;;5009034;28;20116;-72
2021/05/31 05:55:19;;;;;;;10.85;7.00;;;10.00;99.90;;;;;;5008798;28;20029;-72
2021/05/31 05:57:46;;;;;;;15.18;7.60;;;10.20;99.90;;;;;;5010287;28;20032;-73
2021/05/31 06:00:16;;;;;;;10.40;7.75;;;10.30;99.90;;;;;;5009846;28;20034;-73
2021/05/31 06:02:42;;;;;;;11.48;7.15;;;10.40;99.90;;;;;;5009690;28;20084;-72
2021/05/31 06:05:09;;;;;;;12.07;7.88;;;10.50;99.90;;;;;;5008690;28;20033;-72
2021/05/31 06:07:35;;;;;;;16.50;7.95;;;10.60;99.90;;;;;;5009762;28;20030;-72
2021/05/31 06:10:01;;;;;;;14.40;8.63;;;10.70;99.90;;;;;;5009692;28;20026;-73
2021/05/31 06:12:27;;;;;;;15.80;9.38;;;10.80;99.90;;;;;;5008591;28;20025;-72
2021/05/31 06:14:52;;;;;;;16.77;10.02;;;11.00;99.90;;;;;;5008509;28;20034;-72
2021/05/31 06:17:18;;;;;;;17.42;9.90;;;11.00;99.90;;;;;;5009696;28;20101;-72
2021/05/31 06:19:44;;;;;;;17.60;9.60;;;11.10;99.90;;;;;;5008250;28;20073;-72
2021/05/31 06:22:09;;;;;;;13.07;8.98;;;11.30;99.90;;;;;;5009963;28;20026;-72
2021/05/31 06:24:35;;;;;;;11.35;8.07;;;11.40;99.90;;;;;;5009637;28;20022;-72
2021/05/31 06:27:00;;;;;;;14.07;7.40;;;11.60;99.90;;;;;;5009639;28;20050;-72
2021/05/31 06:29:27;;;;;;;14.18;7.90;;;11.70;99.90;;;;;;5008814;28;20033;-72
2021/05/31 06:31:53;;;;;;;13.63;7.65;;;11.80;99.90;;;;;;5008223;28;20409;-72
2021/05/31 06:34:18;;;;;;;10.98;7.28;;;11.90;99.90;;;;;;5009981;28;20034;-72
2021/05/31 06:36:45;;;;;;;9.05;6.47;;;12.00;99.90;;;;;;5008234;28;20026;-73
2021/05/31 06:39:11;;;;;;;10.65;7.68;;;12.10;99.90;;;;;;5007897;28;20046;-72
2021/05/31 06:41:40;;;;;;;9.93;7.07;;;12.20;99.90;;;;;;5009473;28;20026;-73
2021/05/31 06:44:06;;;;;;;9.30;6.55;;;12.30;99.90;;;;;;5009568;28;20045;-72
2021/05/31 06:46:32;;;;;;;10.02;6.55;;;12.40;99.90;;;;;;5009606;28;20029;-72
2021/05/31 06:48:58;;;;;;;10.90;7.47;;;12.40;99.90;;;;;;5008153;28;20026;-73
2021/05/31 06:51:24;;;;;;;11.45;7.55;;;12.50;99.90;;;;;;5008668;28;20029;-73
2021/05/31 06:53:50;;;;;;;12.60;7.28;;;12.60;99.90;;;;;;5008871;28;20026;-72
2021/05/31 06:56:20;;;;;;;11.07;6.47;;;12.70;99.90;;;;;;5008365;28;20076;-72
2021/05/31 06:58:46;;;;;;;9.80;7.40;;;12.80;99.90;;;;;;5008555;28;20030;-72
2021/05/31 07:01:11;;;;;;;12.50;6.85;;;12.80;99.90;;;;;;5009375;28;20132;-72
2021/05/31 07:03:38;;;;;;;9.75;6.95;;;12.90;99.90;;;;;;5008554;28;20088;-73
2021/05/31 07:06:04;;;;;;;7.88;5.97;;;12.90;99.90;;;;;;5008447;28;20026;-72
2021/05/31 07:08:31;;;;;;;9.68;6.68;;;12.80;99.90;;;;;;5009701;28;20034;-73
2021/05/31 07:10:58;;;;;;;7.95;6.38;;;13.00;99.90;;;;;;5007979;28;20037;-73
2021/05/31 07:13:24;;;;;;;10.27;6.70;;;13.30;99.90;;;;;;5010586;28;20026;-72
2021/05/31 07:15:51;;;;;;;8.55;5.82;;;13.40;99.90;;;;;;5013223;28;20399;-73
2021/05/31 07:18:19;;;;;;;7.97;5.65;;;13.60;99.90;;;;;;5011665;28;20030;-72
2021/05/31 07:20:46;;;;;;;9.60;6.38;;;13.70;99.90;;;;;;5012850;28;20059;-73
2021/05/31 07:23:12;;;;;;;9.18;6.53;;;13.90;99.90;;;;;;5011476;28;20083;-73
2021/05/31 07:25:37;;;;;;;8.60;6.45;;;13.80;99.90;;;;;;5012629;28;20489;-72
2021/05/31 07:28:03;;;;;;;9.57;6.38;;;13.70;99.90;;;;;;5011422;28;20113;-72
2021/05/31 07:30:29;;;;;;;7.75;5.55;;;13.70;99.90;;;;;;5012671;28;20033;-73
2021/05/31 07:32:55;;;;;;;7.00;5.47;;;13.90;99.90;;;;;;5013056;28;20029;-72
2021/05/31 07:35:20;;;;;;;8.07;5.45;;;14.20;99.90;;;;;;5013075;28;20160;-73
2021/05/31 07:37:46;;;;;;;6.63;5.20;;;14.20;99.90;;;;;;5011269;28;20041;-72
2021/05/31 07:40:13;;;;;;;10.32;6.38;;;14.30;99.90;;;;;;5011953;28;20416;-72
2021/05/31 07:42:39;;;;;;;6.43;4.88;;;14.40;99.90;;;;;;5012114;28;20025;-72
2021/05/31 07:45:06;;;;;;;7.47;5.95;;;14.60;99.90;;;;;;5010952;28;20044;-72
2021/05/31 07:47:32;;;;;;;9.23;4.80;;;14.70;99.90;;;;;;5012184;28;20033;-72
2021/05/31 07:49:58;;;;;;;5.50;4.68;;;14.50;99.90;;;;;;5011013;28;20442;-72
2021/05/31 07:52:28;;;;;;;8.07;5.75;;;14.70;99.90;;;;;;5010852;28;20036;-72
2021/05/31 07:54:54;;;;;;;7.13;4.97;;;14.80;99.90;;;;;;5012343;28;20022;-72
2021/05/31 07:57:21;;;;;;;5.85;4.50;;;14.90;99.90;;;;;;5010683;28;20037;-72
2021/05/31 07:59:47;;;;;;;6.30;4.68;;;15.00;99.10;;;;;;5011805;28;20022;-72
2021/05/31 08:02:13;;;;;;;8.63;5.70;;;15.10;99.90;;;;;;5012026;28;20444;-72
2021/05/31 08:04:39;;;;;;;7.25;5.22;;;15.30;98.70;;;;;;5011881;28;20026;-72
2021/05/31 08:07:04;;;;;;;6.60;4.95;;;15.20;96.80;;;;;;5012389;28;20380;-72
2021/05/31 08:09:30;;;;;;;6.82;4.63;;;15.50;96.00;;;;;;5011713;28;20037;-73
2021/05/31 08:11:57;;;;;;;7.63;5.65;;;15.60;96.00;;;;;;5011765;28;20026;-72
2021/05/31 08:14:24;;;;;;;7.22;4.93;;;15.60;93.10;;;;;;5010450;28;20087;-72
2021/05/31 08:16:50;;;;;;;19.30;8.00;;;15.70;93.20;;;;;;5011946;28;20479;-72
2021/05/31 08:19:16;;;;;;;9.85;5.57;;;15.70;92.50;;;;;;5011826;28;20030;-73
2021/05/31 08:21:43;;;;;;;10.18;5.93;;;15.80;92.10;;;;;;5011663;28;20029;-73
2021/05/31 08:24:09;;;;;;;7.28;3.97;;;16.10;91.10;;;;;;5011473;28;20424;-73
2021/05/31 08:26:40;;;;;;;6.50;4.45;;;16.40;85.30;;;;;;5011582;28;20025;-73
2021/05/31 08:29:05;;;;;;;4.60;3.53;;;16.50;85.60;;;;;;5010469;28;20026;-73
2021/05/31 08:31:31;;;;;;;5.00;3.83;;;16.60;84.00;;;;;;5011409;28;20036;-73
2021/05/31 08:33:57;;;;;;;4.68;3.50;;;16.70;81.70;;;;;;5011628;28;20040;-73
2021/05/31 08:36:23;;;;;;;4.60;3.40;;;16.70;78.40;;;;;;5011754;28;20061;-73
2021/05/31 08:38:50;;;;;;;6.53;4.55;;;16.80;80.00;;;;;;5011080;28;20022;-73
2021/05/31 08:41:16;;;;;;;4.55;3.80;;;16.90;79.80;;;;;;5011133;28;20076;-73
2021/05/31 08:43:42;;;;;;;6.35;4.20;;;16.90;77.10;;;;;;5009820;28;20116;-73
2021/05/31 08:46:08;;;;;;;5.50;3.75;;;17.10;76.90;;;;;;5011193;28;20018;-73
2021/05/31 08:48:33;;;;;;;8.00;3.92;;;17.20;77.10;;;;;;5009684;28;20026;-72
2021/05/31 08:50:59;;;;;;;5.85;3.70;;;17.20;73.00;;;;;;5010983;28;20032;-73
2021/05/31 08:53:25;;;;;;;5.18;3.55;;;17.40;74.20;;;;;;5011185;28;20030;-73
2021/05/31 08:55:51;;;;;;;3.90;3.08;;;17.50;72.30;;;;;;5011001;28;20059;-73
2021/05/31 08:58:18;;;;;;;7.35;3.47;;;17.60;67.30;;;;;;5011191;28;20033;-72
2021/05/31 09:00:44;;;;;;;4.05;3.22;;;17.90;66.80;;;;;;5009414;28;20483;-73
2021/05/31 09:03:10;;;;;;;3.80;2.85;;;18.30;66.30;;;;;;5010721;28;20034;-72
2021/05/31 09:05:38;;;;;;;5.20;2.88;;;18.40;57.60;;;;;;5011147;28;20018;-73
2021/05/31 09:08:17;;;;;;;5.93;2.75;;;18.60;57.60;;;;;;5010952;28;20021;-73
2021/05/31 09:10:55;;;;;;;3.22;2.28;;;19.10;58.30;;;;;;5010603;28;20446;-73
2021/05/31 09:13:34;;;;;;;4.10;2.80;;;19.60;56.50;;;;;;5010905;28;20049;-73
2021/05/31 09:16:16;;;;;;;4.05;2.33;;;19.60;54.90;;;;;;5010844;28;20557;-73
2021/05/31 09:18:50;;;;;;;4.22;2.65;;;19.40;51.10;;;;;;5010855;28;20037;-73
2021/05/31 09:21:19;;;;;;;4.35;3.38;;;19.40;53.00;;;;;;5010441;28;20033;-73
2021/05/31 09:23:47;;;;;;;3.95;3.53;;;19.60;56.30;;;;;;5010685;28;20046;-73
2021/05/31 09:26:13;;;;;;;5.13;2.90;;;20.20;55.10;;;;;;5010351;28;20080;-73
2021/05/31 09:28:39;;;;;;;3.88;3.00;;;21.00;53.40;;;;;;5010366;28;20026;-73
2021/05/31 09:31:16;;;;;;;3.92;3.13;;;21.30;52.90;;;;;;5008975;28;20022;-73
2021/05/31 09:33:42;;;;;;;5.10;3.50;;;21.30;53.00;;;;;;5010810;28;20076;-73
2021/05/31 09:36:08;;;;;;;4.38;3.00;;;21.00;51.70;;;;;;5008517;28;20032;-73
2021/05/31 09:38:34;;;;;;;3.75;3.28;;;21.90;51.10;;;;;;5010245;28;20502;-73
2021/05/31 09:40:59;;;;;;;4.93;3.25;;;22.60;49.20;;;;;;5009844;28;20068;-73
2021/05/31 09:43:29;;;;;;;6.70;2.67;;;22.20;48.90;;;;;;5010014;28;20026;-73
2021/05/31 09:45:55;;;;;;;3.72;3.10;;;21.50;49.90;;;;;;5008823;28;20022;-73
2021/05/31 09:48:31;;;;;;;3.47;3.05;;;22.20;48.60;;;;;;5010242;28;20149;-73
2021/05/31 09:51:01;;;;;;;3.83;2.40;;;22.40;47.90;;;;;;5009988;28;20026;-73
2021/05/31 09:53:37;;;;;;;4.90;3.05;;;22.50;46.80;;;;;;5009899;28;20022;-73
2021/05/31 09:56:21;;;;;;;3.08;2.78;;;22.30;47.00;;;;;;5008684;28;20482;-74
2021/05/31 09:58:55;;;;;;;3.72;2.70;;;24.30;44.90;;;;;;5009894;28;20531;-74
2021/05/31 10:01:42;;;;;;;4.18;2.55;;;27.40;38.40;;;;;;5009862;28;20116;-74
2021/05/31 10:04:19;;;;;;;3.00;2.65;;;27.20;37.60;;;;;;5010155;28;20029;-74
2021/05/31 10:06:53;;;;;;;3.13;2.58;;;26.40;37.90;;;;;;5009551;28;20069;-75
2021/05/31 10:09:18;;;;;;;6.88;2.97;;;26.90;37.50;;;;;;5008888;28;20026;-74
2021/05/31 10:11:47;;;;;;;3.42;2.75;;;26.30;37.60;;;;;;5008654;28;20029;-73
2021/05/31 10:14:15;;;;;;;2.72;2.20;;;25.70;39.00;;;;;;5009320;28;20022;-74
2021/05/31 10:16:42;;;;;;;3.90;2.70;;;25.40;39.80;;;;;;5009763;28;20022;-75
2021/05/31 10:19:08;;;;;;;4.63;2.60;;;26.90;37.80;;;;;;5009514;28;20053;-75
2021/05/31 10:21:33;;;;;;;2.80;2.20;;;26.60;38.40;;;;;;5009154;28;20022;-73
2021/05/31 10:23:59;;;;;;;3.22;2.40;;;26.20;38.10;;;;;;5009910;28;20029;-73
2021/05/31 10:26:28;;;;;;;6.22;2.92;;;26.20;39.10;;;;;;5009571;28;20030;-74
2021/05/31 10:28:54;;;;;;;3.45;2.40;;;27.00;37.10;;;;;;5008245;28;20101;-74
2021/05/31 10:31:20;;;;;;;3.60;2.42;;;30.10;32.90;;;;;;5009542;28;20487;-74
2021/05/31 10:34:03;;;;;;;4.10;2.60;;;32.80;29.00;;;;;;5009045;28;20128;-74
2021/05/31 10:36:33;;;;;;;2.50;2.30;;;34.50;27.80;;;;;;5009787;28;20033;-74
2021/05/31 10:39:04;;;;;;;2.45;2.25;;;35.90;24.50;;;;;;5009264;28;20500;-75
2021/05/31 10:41:31;;;;;;;3.20;2.60;;;34.70;25.00;;;;;;5051465;22;20049;-75
2021/05/31 10:43:59;;;;;;;2.15;1.95;;;34.30;26.00;;;;;;5029486;28;20032;-74
2021/05/31 10:46:27;;;;;;;2.33;2.13;;;32.90;27.90;;;;;;5029119;28;20368;-72
2021/05/31 10:48:53;;;;;;;3.08;2.00;;;31.70;27.70;;;;;;5030252;28;20021;-72
2021/05/31 10:51:20;;;;;;;2.22;2.03;;;33.00;25.50;;;;;;5033315;28;20502;-73
2021/05/31 10:53:46;;;;;;;2.22;1.83;;;35.80;25.90;;;;;;5031809;28;20033;-73
2021/05/31 10:56:17;;;;;;;2.30;2.10;;;38.10;24.50;;;;;;5033053;28;20025;-73
2021/05/31 10:58:47;;;;;;;1.70;1.60;;;40.00;21.90;;;;;;5032904;28;20030;-74
2021/05/31 11:01:15;;;;;;;2.50;2.25;;;41.80;22.90;;;;;;5031136;28;20065;-74
2021/05/31 11:04:14;;;;;;;1.98;1.77;;;42.80;20.20;;;;;;5032947;28;20029;-74
2021/05/31 11:06:42;;;;;;;2.25;2.05;;;43.20;19.40;;;;;;5027957;28;20080;-74
2021/05/31 11:09:08;;;;;;;3.10;1.92;;;44.00;18.60;;;;;;5033015;28;20518;-74
2021/05/31 11:11:38;;;;;;;3.42;2.15;;;43.70;18.90;;;;;;5032271;28;20033;-74
2021/05/31 11:14:06;;;;;;;2.10;1.83;;;44.40;18.80;;;;;;5032624;28;20029;-74
2021/05/31 11:16:36;;;;;;;2.58;1.80;;;43.20;18.80;;;;;;5031210;28;20487;-74
2021/05/31 11:19:04;;;;;;;2.03;1.83;;;39.90;20.30;;;;;;5032631;28;20021;-74
2021/05/31 11:21:40;;;;;;;2.00;1.90;;;40.20;21.00;;;;;;5031161;28;20049;-74
2021/05/31 11:24:10;;;;;;;2.78;2.03;;;39.70;20.60;;;;;;5032752;28;20390;-73
2021/05/31 11:26:37;;;;;;;2.92;2.15;;;37.20;22.20;;;;;;5031253;28;20021;-73
2021/05/31 11:29:06;;;;;;;3.00;1.83;;;35.80;23.10;;;;;;5031501;28;20441;-74
2021/05/31 11:31:33;;;;;;;1.90;1.80;;;36.10;23.40;;;;;;5030906;28;20028;-74
2021/05/31 11:34:01;;;;;;;1.70;1.60;;;38.20;22.40;;;;;;5030946;28;20510;-73
2021/05/31 11:36:38;;;;;;;3.60;1.73;;;40.10;20.60;;;;;;5032250;28;20445;-74
2021/05/31 11:39:13;;;;;;;2.42;1.70;;;40.30;19.70;;;;;;5032771;28;20479;-74
2021/05/31 11:41:47;;;;;;;2.50;1.90;;;41.00;19.90;;;;;;5032378;28;20034;-74
2021/05/31 11:44:24;;;;;;;4.30;2.10;;;40.30;19.90;;;;;;5032014;28;20506;-74
2021/05/31 11:46:51;;;;;;;3.45;1.98;;;38.20;20.20;;;;;;5031074;28;20508;-74
2021/05/31 11:49:18;;;;;;;1.88;1.75;;;35.30;22.90;;;;;;5032108;28;20030;-74
2021/05/31 11:52:05;;;;;;;2.15;1.80;;;34.50;24.80;;;;;;5031957;28;20071;-72
2021/05/31 11:54:33;;;;;;;2.72;1.95;;;35.10;22.70;;;;;;5030758;28;20052;-73
2021/05/31 11:57:07;;;;;;;2.00;1.88;;;36.70;22.40;;;;;;5032553;28;20025;-74
2021/05/31 11:59:33;;;;;;;1.88;1.77;;;37.90;21.20;;;;;;5031876;28;20029;-74
2021/05/31 12:01:59;;;;;;;2.28;2.08;;;37.90;20.30;;;;;;5032414;28;20083;-74
2021/05/31 12:04:25;;;;;;;2.95;2.55;;;39.70;20.50;;;;;;5031200;28;20057;-74
2021/05/31 12:07:03;;;;;;;1.92;1.60;;;41.60;20.40;;;;;;5032808;28;20022;-75
2021/05/31 12:09:28;;;;;;;1.70;1.60;;;42.40;19.70;;;;;;5032397;28;20037;-75
2021/05/31 12:11:55;;;;;;;2.88;2.13;;;43.00;18.90;;;;;;5030974;28;20024;-74
2021/05/31 12:14:23;;;;;;;2.47;1.70;;;41.70;18.00;;;;;;5032850;28;20471;-74
2021/05/31 12:16:58;;;;;;;1.85;1.52;;;42.30;19.00;;;;;;5032157;28;20025;-74
2021/05/31 12:19:28;;;;;;;2.97;2.58;;;42.10;18.80;;;;;;5030899;28;20017;-74
2021/05/31 12:21:56;;;;;;;1.75;1.60;;;41.60;19.70;;;;;;5030709;28;20140;-74
2021/05/31 12:24:30;;;;;;;1.90;1.60;;;39.40;19.90;;;;;;5030574;28;20022;-73
2021/05/31 12:26:58;;;;;;;1.52;1.40;;;36.90;20.80;;;;;;5030990;28;20045;-74
2021/05/31 12:29:46;;;;;;;2.05;1.63;;;36.90;21.40;;;;;;5033505;28;20013;-76
2021/05/31 12:32:15;;;;;;;2.22;1.55;;;35.10;20.40;;;;;;5031753;28;20026;-75
2021/05/31 12:34:42;;;;;;;1.60;1.17;;;36.40;21.30;;;;;;5032287;28;20025;-76
2021/05/31 12:37:10;;;;;;;2.78;1.60;;;38.20;22.00;;;;;;5032061;28;20021;-76
2021/05/31 12:39:47;;;;;;;1.50;1.40;;;39.30;19.80;;;;;;5030491;28;20522;-77
2021/05/31 12:42:18;;;;;;;1.90;1.20;;;39.70;19.30;;;;;;5032319;28;20025;-76
2021/05/31 12:44:44;;;;;;;1.70;1.60;;;39.70;18.70;;;;;;5031782;28;20025;-75
2021/05/31 12:47:15;;;;;;;2.00;1.38;;;37.50;19.50;;;;;;5031157;28;20364;-75
2021/05/31 12:49:52;;;;;;;1.45;1.20;;;37.70;20.40;;;;;;5030947;28;20045;-75
2021/05/31 12:52:26;;;;;;;1.85;1.42;;;37.40;20.50;;;;;;5031431;28;20130;-75
2021/05/31 12:55:13;;;;;;;2.05;1.65;;;38.20;20.00;;;;;;5030840;28;20479;-75
2021/05/31 12:57:45;;;;;;;2.63;1.45;;;37.50;19.70;;;;;;5029094;28;20444;-75
2021/05/31 13:00:16;;;;;;;4.53;1.52;;;34.90;20.20;;;;;;5029813;28;20029;-75
2021/05/31 13:02:45;;;;;;;2.67;1.65;;;35.00;21.20;;;;;;5030365;28;20497;-75
2021/05/31 13:05:13;;;;;;;1.77;1.40;;;36.20;20.80;;;;;;5031408;28;20029;-75